sensor_id;sensor_type;location;lat;lon;timestamp;temperature;humidity
14521;DHT22;7347;50.844;4.490;2023-08-24T08:24:15;27.10;99.90
14521;DHT22;7347;50.844;4.490;2023-08-24T08:26:42;27.00;99.90
14521;DHT22;7347;50.844;4.490;2023-08-24T08:29:09;27.00;99.90
14521;DHT22;7347;50.844;4.490;2023-08-24T08:31:36;27.00;99.90
14521;DHT22;7347;50.844;4.490;2023-08-24T08:34:03;27.10;99.90
14521;DHT22;7347;50.844;4.490;2023-08-24T08:36:30;27.30;99.90
14521;DHT22;7347;50.844;4.490;2023-08-24T08:38:58;27.40;99.90
14521;DHT22;7347;50.844;4.490;2023-08-24T08:41:30;27.30;99.90
14521;DHT22;7347;50.844;4.490;2023-08-24T08:44:05;27.50;99.90
14521;DHT22;7347;50.844;4.490;2023-08-24T08:46:32;27.50;99.90
14521;DHT22;7347;50.844;4.490;2023-08-24T08:49:00;27.60;99.90
14521;DHT22;7347;50.844;4.490;2023-08-24T08:51:28;27.80;99.90
14521;DHT22;7347;50.844;4.490;2023-08-24T08:53:56;27.90;99.90
14521;DHT22;7347;50.844;4.490;2023-08-24T08:56:23;28.00;99.90
14521;DHT22;7347;50.844;4.490;2023-08-24T08:58:52;27.80;99.90
14521;DHT22;7347;50.844;4.490;2023-08-24T09:01:20;27.80;99.90
14521;DHT22;7347;50.844;4.490;2023-08-24T09:03:48;27.80;99.90
14521;DHT22;7347;50.844;4.490;2023-08-24T09:06:15;27.90;99.90
14521;DHT22;7347;50.844;4.490;2023-08-24T09:08:44;27.80;99.90
14521;DHT22;7347;50.844;4.490;2023-08-24T09:11:11;27.70;99.90
14521;DHT22;7347;50.844;4.490;2023-08-24T09:13:38;27.50;99.90
14521;DHT22;7347;50.844;4.490;2023-08-24T09:16:07;27.30;99.90
14521;DHT22;7347;50.844;4.490;2023-08-24T09:18:35;27.40;99.90
14521;DHT22;7347;50.844;4.490;2023-08-24T09:21:08;27.30;99.90
14521;DHT22;7347;50.844;4.490;2023-08-24T09:23:35;27.10;99.90
14521;DHT22;7347;50.844;4.490;2023-08-24T09:26:02;26.80;99.90
14521;DHT22;7347;50.844;4.490;2023-08-24T09:28:30;26.70;99.90
14521;DHT22;7347;50.844;4.490;2023-08-24T09:31:00;26.60;99.90
14521;DHT22;7347;50.844;4.490;2023-08-24T09:33:29;26.40;99.90
14521;DHT22;7347;50.844;4.490;2023-08-24T09:35:56;26.30;99.90
14521;DHT22;7347;50.844;4.490;2023-08-24T09:38:27;26.30;99.90
14521;DHT22;7347;50.844;4.490;2023-08-24T09:40:55;26.10;99.90
14521;DHT22;7347;50.844;4.490;2023-08-24T09:43:23;25.80;99.90
14521;DHT22;7347;50.844;4.490;2023-08-24T09:45:52;25.50;99.90
14521;DHT22;7347;50.844;4.490;2023-08-24T09:48:19;24.80;99.90
14521;DHT22;7347;50.844;4.490;2023-08-24T09:50:50;24.30;99.90
14521;DHT22;7347;50.844;4.490;2023-08-24T09:53:18;23.90;99.90
14521;DHT22;7347;50.844;4.490;2023-08-24T09:55:53;23.60;99.90
14521;DHT22;7347;50.844;4.490;2023-08-24T09:58:21;23.30;99.90
14521;DHT22;7347;50.844;4.490;2023-08-24T10:00:49;22.90;99.90
14521;DHT22;7347;50.844;4.490;2023-08-24T10:03:19;22.50;99.90
14521;DHT22;7347;50.844;4.490;2023-08-24T10:05:53;22.40;99.90
14521;DHT22;7347;50.844;4.490;2023-08-24T10:08:24;22.20;99.90
14521;DHT22;7347;50.844;4.490;2023-08-24T10:10:54;22.00;99.90
14521;DHT22;7347;50.844;4.490;2023-08-24T10:13:26;22.00;99.90
14521;DHT22;7347;50.844;4.490;2023-08-24T10:15:56;22.00;99.90
14521;DHT22;7347;50.844;4.490;2023-08-24T10:18:23;21.90;99.90
14521;DHT22;7347;50.844;4.490;2023-08-24T10:20:53;21.90;99.90
14521;DHT22;7347;50.844;4.490;2023-08-24T10:23:20;21.80;99.90
14521;DHT22;7347;50.844;4.490;2023-08-24T10:25:48;21.80;99.90
14521;DHT22;7347;50.844;4.490;2023-08-24T10:28:18;21.70;99.90
14521;DHT22;7347;50.844;4.490;2023-08-24T10:30:47;21.60;99.90
14521;DHT22;7347;50.844;4.490;2023-08-24T10:33:15;21.50;99.90
14521;DHT22;7347;50.844;4.490;2023-08-24T10:35:43;21.40;99.90
14521;DHT22;7347;50.844;4.490;2023-08-24T10:38:24;21.50;99.90
14521;DHT22;7347;50.844;4.490;2023-08-24T10:40:52;21.50;99.90
14521;DHT22;7347;50.844;4.490;2023-08-24T10:43:19;21.30;99.90
14521;DHT22;7347;50.844;4.490;2023-08-24T10:45:57;21.10;99.90
14521;DHT22;7347;50.844;4.490;2023-08-24T10:48:24;21.10;99.90
14521;DHT22;7347;50.844;4.490;2023-08-24T10:51:17;21.10;99.90
14521;DHT22;7347;50.844;4.490;2023-08-24T10:53:47;21.10;99.90
14521;DHT22;7347;50.844;4.490;2023-08-24T10:56:15;21.10;99.90
14521;DHT22;7347;50.844;4.490;2023-08-24T10:58:45;21.20;99.90
14521;DHT22;7347;50.844;4.490;2023-08-24T11:01:15;21.20;99.90
14521;DHT22;7347;50.844;4.490;2023-08-24T11:03:49;21.30;99.90
14521;DHT22;7347;50.844;4.490;2023-08-24T11:06:20;21.30;99.90
14521;DHT22;7347;50.844;4.490;2023-08-24T11:09:05;21.30;99.90
14521;DHT22;7347;50.844;4.490;2023-08-24T11:11:32;21.40;99.90
14521;DHT22;7347;50.844;4.490;2023-08-24T11:14:23;21.50;99.90
14521;DHT22;7347;50.844;4.490;2023-08-24T11:16:52;21.80;99.90
14521;DHT22;7347;50.844;4.490;2023-08-24T11:19:19;22.00;99.90
14521;DHT22;7347;50.844;4.490;2023-08-24T11:21:47;22.10;99.90
14521;DHT22;7347;50.844;4.490;2023-08-24T11:24:16;22.00;99.90
14521;DHT22;7347;50.844;4.490;2023-08-24T11:26:44;22.00;99.90
14521;DHT22;7347;50.844;4.490;2023-08-24T11:29:12;22.10;99.90
14521;DHT22;7347;50.844;4.490;2023-08-24T11:31:39;22.10;99.90
14521;DHT22;7347;50.844;4.490;2023-08-24T11:34:06;22.20;99.90
14521;DHT22;7347;50.844;4.490;2023-08-24T11:36:41;22.40;99.90
14521;DHT22;7347;50.844;4.490;2023-08-24T11:39:16;22.50;99.90
14521;DHT22;7347;50.844;4.490;2023-08-24T11:41:45;22.50;99.90
14521;DHT22;7347;50.844;4.490;2023-08-24T11:44:14;22.60;99.90
14521;DHT22;7347;50.844;4.490;2023-08-24T11:46:41;22.60;99.90
14521;DHT22;7347;50.844;4.490;2023-08-24T11:49:08;22.50;99.90
14521;DHT22;7347;50.844;4.490;2023-08-24T11:51:36;22.60;99.90
14521;DHT22;7347;50.844;4.490;2023-08-24T11:54:03;22.50;99.90
14521;DHT22;7347;50.844;4.490;2023-08-24T11:56:32;22.50;99.90
14521;DHT22;7347;50.844;4.490;2023-08-24T11:58:59;22.40;99.90
14521;DHT22;7347;50.844;4.490;2023-08-24T12:01:26;22.40;99.90
14521;DHT22;7347;50.844;4.490;2023-08-24T12:03:53;22.50;99.90
14521;DHT22;7347;50.844;4.490;2023-08-24T12:06:20;22.70;99.90
14521;DHT22;7347;50.844;4.490;2023-08-24T12:08:47;22.70;99.90
14521;DHT22;7347;50.844;4.490;2023-08-24T12:11:17;22.80;99.90
14521;DHT22;7347;50.844;4.490;2023-08-24T12:13:46;22.70;99.90
14521;DHT22;7347;50.844;4.490;2023-08-24T12:16:15;22.70;99.90
14521;DHT22;7347;50.844;4.490;2023-08-24T12:18:50;22.40;99.90
14521;DHT22;7347;50.844;4.490;2023-08-24T12:21:17;22.20;99.90
14521;DHT22;7347;50.844;4.490;2023-08-24T12:23:45;22.20;99.90
14521;DHT22;7347;50.844;4.490;2023-08-24T12:26:21;22.20;99.90
14521;DHT22;7347;50.844;4.490;2023-08-24T12:28:52;22.00;99.90
14521;DHT22;7347;50.844;4.490;2023-08-24T12:31:20;21.80;99.90
14521;DHT22;7347;50.844;4.490;2023-08-24T12:33:59;21.70;99.90
14521;DHT22;7347;50.844;4.490;2023-08-24T12:36:26;21.60;99.90
14521;DHT22;7347;50.844;4.490;2023-08-24T12:38:53;21.50;99.90
14521;DHT22;7347;50.844;4.490;2023-08-24T12:41:20;21.40;99.90
14521;DHT22;7347;50.844;4.490;2023-08-24T12:43:47;21.30;99.90
14521;DHT22;7347;50.844;4.490;2023-08-24T12:46:15;21.30;99.90
14521;DHT22;7347;50.844;4.490;2023-08-24T12:48:42;21.20;99.90
14521;DHT22;7347;50.844;4.490;2023-08-24T12:51:09;21.10;99.90
14521;DHT22;7347;50.844;4.490;2023-08-24T12:53:36;21.10;99.90
14521;DHT22;7347;50.844;4.490;2023-08-24T12:56:03;21.00;99.90
14521;DHT22;7347;50.844;4.490;2023-08-24T12:58:30;20.90;99.90
14521;DHT22;7347;50.844;4.490;2023-08-24T13:00:57;20.90;99.90
14521;DHT22;7347;50.844;4.490;2023-08-24T13:03:25;20.80;99.90
14521;DHT22;7347;50.844;4.490;2023-08-24T13:05:52;20.70;99.90
14521;DHT22;7347;50.844;4.490;2023-08-24T13:08:19;20.60;99.90
14521;DHT22;7347;50.844;4.490;2023-08-24T13:10:45;20.60;99.90
14521;DHT22;7347;50.844;4.490;2023-08-24T13:13:12;20.50;99.90
14521;DHT22;7347;50.844;4.490;2023-08-24T13:15:39;20.50;99.90
14521;DHT22;7347;50.844;4.490;2023-08-24T13:18:06;20.60;99.90
14521;DHT22;7347;50.844;4.490;2023-08-24T13:20:35;20.60;99.90
14521;DHT22;7347;50.844;4.490;2023-08-24T13:23:02;20.60;99.90
14521;DHT22;7347;50.844;4.490;2023-08-24T13:25:29;20.50;99.90
14521;DHT22;7347;50.844;4.490;2023-08-24T13:27:56;20.50;99.90
14521;DHT22;7347;50.844;4.490;2023-08-24T13:30:23;20.50;99.90
14521;DHT22;7347;50.844;4.490;2023-08-24T13:32:49;20.50;99.90
14521;DHT22;7347;50.844;4.490;2023-08-24T13:35:16;20.50;99.90
14521;DHT22;7347;50.844;4.490;2023-08-24T13:37:45;20.50;99.90
14521;DHT22;7347;50.844;4.490;2023-08-24T13:40:12;20.50;99.90
14521;DHT22;7347;50.844;4.490;2023-08-24T13:42:38;20.60;99.90
14521;DHT22;7347;50.844;4.490;2023-08-24T13:45:06;20.60;99.90
14521;DHT22;7347;50.844;4.490;2023-08-24T13:47:33;20.60;99.90
14521;DHT22;7347;50.844;4.490;2023-08-24T13:50:00;20.70;99.90
14521;DHT22;7347;50.844;4.490;2023-08-24T13:52:28;20.70;99.90
14521;DHT22;7347;50.844;4.490;2023-08-24T13:54:56;20.80;99.90
14521;DHT22;7347;50.844;4.490;2023-08-24T13:57:23;20.70;99.90
14521;DHT22;7347;50.844;4.490;2023-08-24T13:59:49;20.90;99.90
14521;DHT22;7347;50.844;4.490;2023-08-24T14:02:16;20.90;99.90
14521;DHT22;7347;50.844;4.490;2023-08-24T14:04:43;21.00;99.90
14521;DHT22;7347;50.844;4.490;2023-08-24T14:07:10;21.10;99.90
14521;DHT22;7347;50.844;4.490;2023-08-24T14:09:37;21.20;99.90
14521;DHT22;7347;50.844;4.490;2023-08-24T14:12:06;21.20;99.90
14521;DHT22;7347;50.844;4.490;2023-08-24T14:14:32;21.30;99.90
14521;DHT22;7347;50.844;4.490;2023-08-24T14:16:59;21.30;99.90
14521;DHT22;7347;50.844;4.490;2023-08-24T14:19:26;21.50;99.90
14521;DHT22;7347;50.844;4.490;2023-08-24T14:21:53;21.50;99.90
14521;DHT22;7347;50.844;4.490;2023-08-24T14:24:20;21.50;99.90
14521;DHT22;7347;50.844;4.490;2023-08-24T14:26:47;21.50;99.90
14521;DHT22;7347;50.844;4.490;2023-08-24T14:29:16;21.40;99.90
14521;DHT22;7347;50.844;4.490;2023-08-24T14:31:42;21.50;99.90
14521;DHT22;7347;50.844;4.490;2023-08-24T14:34:09;21.50;99.90
14521;DHT22;7347;50.844;4.490;2023-08-24T14:36:36;21.70;99.90
14521;DHT22;7347;50.844;4.490;2023-08-24T14:39:03;21.70;99.90
14521;DHT22;7347;50.844;4.490;2023-08-24T14:41:30;21.80;99.90
14521;DHT22;7347;50.844;4.490;2023-08-24T14:43:57;21.80;99.90
14521;DHT22;7347;50.844;4.490;2023-08-24T14:46:25;21.70;99.90
14521;DHT22;7347;50.844;4.490;2023-08-24T14:48:52;21.80;99.90
14521;DHT22;7347;50.844;4.490;2023-08-24T14:51:19;21.90;99.90
14521;DHT22;7347;50.844;4.490;2023-08-24T14:53:46;21.90;99.90
14521;DHT22;7347;50.844;4.490;2023-08-24T14:56:12;22.00;99.90
14521;DHT22;7347;50.844;4.490;2023-08-24T14:58:39;22.10;99.90
14521;DHT22;7347;50.844;4.490;2023-08-24T15:01:06;22.20;99.90
14521;DHT22;7347;50.844;4.490;2023-08-24T15:03:36;22.20;99.90
14521;DHT22;7347;50.844;4.490;2023-08-24T15:06:04;22.30;99.90
14521;DHT22;7347;50.844;4.490;2023-08-24T15:08:32;22.30;99.90
14521;DHT22;7347;50.844;4.490;2023-08-24T15:11:00;22.40;99.90
14521;DHT22;7347;50.844;4.490;2023-08-24T15:13:28;22.50;99.90
14521;DHT22;7347;50.844;4.490;2023-08-24T15:15:57;22.50;99.90
14521;DHT22;7347;50.844;4.490;2023-08-24T15:18:25;22.50;99.90
14521;DHT22;7347;50.844;4.490;2023-08-24T15:20:53;22.60;99.90
14521;DHT22;7347;50.844;4.490;2023-08-24T15:23:25;22.80;99.90
14521;DHT22;7347;50.844;4.490;2023-08-24T15:25:53;22.70;99.90
14521;DHT22;7347;50.844;4.490;2023-08-24T15:28:20;22.70;99.90
14521;DHT22;7347;50.844;4.490;2023-08-24T15:30:47;22.90;99.90
14521;DHT22;7347;50.844;4.490;2023-08-24T15:33:14;22.90;99.90
14521;DHT22;7347;50.844;4.490;2023-08-24T15:35:41;23.10;99.90
14521;DHT22;7347;50.844;4.490;2023-08-24T15:38:10;23.10;99.90
14521;DHT22;7347;50.844;4.490;2023-08-24T15:40:38;23.20;99.90
14521;DHT22;7347;50.844;4.490;2023-08-24T15:43:06;23.40;99.90
14521;DHT22;7347;50.844;4.490;2023-08-24T15:45:33;23.50;99.90
14521;DHT22;7347;50.844;4.490;2023-08-24T15:48:00;23.50;99.90
14521;DHT22;7347;50.844;4.490;2023-08-24T15:50:27;23.60;99.90
14521;DHT22;7347;50.844;4.490;2023-08-24T15:52:54;23.80;99.90
14521;DHT22;7347;50.844;4.490;2023-08-24T15:55:28;24.10;99.90
14521;DHT22;7347;50.844;4.490;2023-08-24T15:57:55;24.20;99.90
14521;DHT22;7347;50.844;4.490;2023-08-24T16:00:22;24.30;99.90
14521;DHT22;7347;50.844;4.490;2023-08-24T16:02:49;24.50;99.90
14521;DHT22;7347;50.844;4.490;2023-08-24T16:05:16;24.80;99.90
14521;DHT22;7347;50.844;4.490;2023-08-24T16:07:43;24.90;99.90
14521;DHT22;7347;50.844;4.490;2023-08-24T16:10:10;25.00;99.90
14521;DHT22;7347;50.844;4.490;2023-08-24T16:12:38;25.10;99.90
14521;DHT22;7347;50.844;4.490;2023-08-24T16:15:06;25.10;99.90
14521;DHT22;7347;50.844;4.490;2023-08-24T16:17:33;25.10;99.90
14521;DHT22;7347;50.844;4.490;2023-08-24T16:20:02;24.90;99.90
14521;DHT22;7347;50.844;4.490;2023-08-24T16:22:32;25.20;99.90
14521;DHT22;7347;50.844;4.490;2023-08-24T16:24:59;25.40;99.90
14521;DHT22;7347;50.844;4.490;2023-08-24T16:27:26;25.40;99.90
14521;DHT22;7347;50.844;4.490;2023-08-24T16:29:54;25.40;99.90
14521;DHT22;7347;50.844;4.490;2023-08-24T16:32:21;25.30;99.90
14521;DHT22;7347;50.844;4.490;2023-08-24T16:34:48;25.30;99.90
14521;DHT22;7347;50.844;4.490;2023-08-24T16:37:15;25.20;99.90
14521;DHT22;7347;50.844;4.490;2023-08-24T16:39:42;25.30;99.90
14521;DHT22;7347;50.844;4.490;2023-08-24T16:42:09;25.20;99.90
14521;DHT22;7347;50.844;4.490;2023-08-24T16:44:36;25.20;99.90
14521;DHT22;7347;50.844;4.490;2023-08-24T16:47:04;24.80;99.90
14521;DHT22;7347;50.844;4.490;2023-08-24T16:49:31;24.70;99.90
14521;DHT22;7347;50.844;4.490;2023-08-24T16:51:58;24.70;99.90
14521;DHT22;7347;50.844;4.490;2023-08-24T16:54:25;24.80;99.90
14521;DHT22;7347;50.844;4.490;2023-08-24T16:56:52;24.80;99.90
14521;DHT22;7347;50.844;4.490;2023-08-24T16:59:19;24.90;99.90
14521;DHT22;7347;50.844;4.490;2023-08-24T17:01:46;24.90;99.90
14521;DHT22;7347;50.844;4.490;2023-08-24T17:04:14;25.00;99.90
14521;DHT22;7347;50.844;4.490;2023-08-24T17:06:41;25.10;99.90
14521;DHT22;7347;50.844;4.490;2023-08-24T17:09:08;25.00;99.90
14521;DHT22;7347;50.844;4.490;2023-08-24T17:11:35;25.00;99.90
14521;DHT22;7347;50.844;4.490;2023-08-24T17:14:01;24.90;99.90
14521;DHT22;7347;50.844;4.490;2023-08-24T17:16:28;24.90;99.90
14521;DHT22;7347;50.844;4.490;2023-08-24T17:18:55;24.90;99.90
14521;DHT22;7347;50.844;4.490;2023-08-24T17:21:23;24.90;99.90
14521;DHT22;7347;50.844;4.490;2023-08-24T17:23:50;24.90;99.90
14521;DHT22;7347;50.844;4.490;2023-08-24T17:26:17;24.90;99.90
14521;DHT22;7347;50.844;4.490;2023-08-24T17:28:44;24.90;99.90
14521;DHT22;7347;50.844;4.490;2023-08-24T17:31:11;24.90;99.90
14521;DHT22;7347;50.844;4.490;2023-08-24T17:33:38;24.90;99.90
14521;DHT22;7347;50.844;4.490;2023-08-24T17:36:05;24.90;99.90
14521;DHT22;7347;50.844;4.490;2023-08-24T17:38:33;24.50;99.90
14521;DHT22;7347;50.844;4.490;2023-08-24T17:41:00;24.50;99.90
14521;DHT22;7347;50.844;4.490;2023-08-24T17:43:28;24.50;99.90
14521;DHT22;7347;50.844;4.490;2023-08-24T17:45:55;24.50;99.90
14521;DHT22;7347;50.844;4.490;2023-08-24T17:48:22;24.50;99.90
14521;DHT22;7347;50.844;4.490;2023-08-24T17:50:53;24.40;99.90
14521;DHT22;7347;50.844;4.490;2023-08-24T17:53:20;24.40;99.90
14521;DHT22;7347;50.844;4.490;2023-08-24T17:55:54;24.40;99.90
14521;DHT22;7347;50.844;4.490;2023-08-24T17:58:22;24.40;99.90
14521;DHT22;7347;50.844;4.490;2023-08-24T18:00:49;24.30;99.90
14521;DHT22;7347;50.844;4.490;2023-08-24T18:03:16;24.30;99.90
14521;DHT22;7347;50.844;4.490;2023-08-24T18:05:43;24.30;99.90
14521;DHT22;7347;50.844;4.490;2023-08-24T18:08:11;24.20;99.90
14521;DHT22;7347;50.844;4.490;2023-08-24T18:10:39;24.10;99.90
14521;DHT22;7347;50.844;4.490;2023-08-24T18:13:07;24.00;99.90
14521;DHT22;7347;50.844;4.490;2023-08-24T18:15:34;23.90;99.90
14521;DHT22;7347;50.844;4.490;2023-08-24T18:18:02;23.90;99.90
14521;DHT22;7347;50.844;4.490;2023-08-24T18:20:30;23.90;99.90
14521;DHT22;7347;50.844;4.490;2023-08-24T18:22:57;23.80;99.90
14521;DHT22;7347;50.844;4.490;2023-08-24T18:25:24;23.70;99.90
14521;DHT22;7347;50.844;4.490;2023-08-24T18:27:51;23.50;99.90
14521;DHT22;7347;50.844;4.490;2023-08-24T18:30:20;23.40;99.90
14521;DHT22;7347;50.844;4.490;2023-08-24T18:32:47;23.30;99.90
14521;DHT22;7347;50.844;4.490;2023-08-24T18:35:14;23.20;99.90
14521;DHT22;7347;50.844;4.490;2023-08-24T18:37:41;23.20;99.90
14521;DHT22;7347;50.844;4.490;2023-08-24T18:40:08;23.10;99.90
14521;DHT22;7347;50.844;4.490;2023-08-24T18:42:35;23.00;99.90
14521;DHT22;7347;50.844;4.490;2023-08-24T18:45:03;22.90;99.90
14521;DHT22;7347;50.844;4.490;2023-08-24T18:47:31;22.90;99.90
14521;DHT22;7347;50.844;4.490;2023-08-24T18:49:59;22.80;99.90
14521;DHT22;7347;50.844;4.490;2023-08-24T18:52:27;22.70;99.90
14521;DHT22;7347;50.844;4.490;2023-08-24T18:54:53;22.70;99.90
14521;DHT22;7347;50.844;4.490;2023-08-24T18:57:21;22.60;99.90
14521;DHT22;7347;50.844;4.490;2023-08-24T18:59:48;22.70;99.90
14521;DHT22;7347;50.844;4.490;2023-08-24T19:02:15;22.60;99.90
14521;DHT22;7347;50.844;4.490;2023-08-24T19:04:45;22.50;99.90
14521;DHT22;7347;50.844;4.490;2023-08-24T19:07:12;22.40;99.90
14521;DHT22;7347;50.844;4.490;2023-08-24T19:09:39;22.40;99.90
14521;DHT22;7347;50.844;4.490;2023-08-24T19:12:06;22.30;99.90
14521;DHT22;7347;50.844;4.490;2023-08-24T19:14:33;22.30;99.90
14521;DHT22;7347;50.844;4.490;2023-08-24T19:17:01;22.20;99.90
14521;DHT22;7347;50.844;4.490;2023-08-24T19:19:28;22.10;99.90
14521;DHT22;7347;50.844;4.490;2023-08-24T19:21:56;22.00;99.90
14521;DHT22;7347;50.844;4.490;2023-08-24T19:24:23;22.00;99.90
14521;DHT22;7347;50.844;4.490;2023-08-24T19:26:50;21.90;99.90
14521;DHT22;7347;50.844;4.490;2023-08-24T19:29:17;21.80;99.90
14521;DHT22;7347;50.844;4.490;2023-08-24T19:31:44;21.90;99.90
14521;DHT22;7347;50.844;4.490;2023-08-24T19:34:11;21.80;99.90
14521;DHT22;7347;50.844;4.490;2023-08-24T19:36:38;21.80;99.90
14521;DHT22;7347;50.844;4.490;2023-08-24T19:39:06;21.70;99.90
14521;DHT22;7347;50.844;4.490;2023-08-24T19:41:33;21.70;99.90
14521;DHT22;7347;50.844;4.490;2023-08-24T19:43:59;21.40;99.90
14521;DHT22;7347;50.844;4.490;2023-08-24T19:46:26;21.50;99.90
14521;DHT22;7347;50.844;4.490;2023-08-24T19:48:54;21.50;99.90
14521;DHT22;7347;50.844;4.490;2023-08-24T19:51:21;21.50;99.90
14521;DHT22;7347;50.844;4.490;2023-08-24T19:53:48;21.40;99.90
14521;DHT22;7347;50.844;4.490;2023-08-24T19:56:17;21.20;99.90
14521;DHT22;7347;50.844;4.490;2023-08-24T19:58:43;21.30;99.90
14521;DHT22;7347;50.844;4.490;2023-08-24T20:01:10;21.40;99.90
14521;DHT22;7347;50.844;4.490;2023-08-24T20:03:37;21.40;99.90
14521;DHT22;7347;50.844;4.490;2023-08-24T20:06:17;21.40;99.90
14521;DHT22;7347;50.844;4.490;2023-08-24T20:08:45;21.40;99.90
14521;DHT22;7347;50.844;4.490;2023-08-24T20:11:12;21.30;99.90
14521;DHT22;7347;50.844;4.490;2023-08-24T20:13:40;21.30;99.90
14521;DHT22;7347;50.844;4.490;2023-08-24T20:16:07;21.20;99.90
14521;DHT22;7347;50.844;4.490;2023-08-24T20:18:34;21.30;99.90
14521;DHT22;7347;50.844;4.490;2023-08-24T20:21:02;21.30;99.90
14521;DHT22;7347;50.844;4.490;2023-08-24T20:23:31;21.30;99.90
14521;DHT22;7347;50.844;4.490;2023-08-24T20:25:58;21.30;99.90
14521;DHT22;7347;50.844;4.490;2023-08-24T20:28:26;21.30;99.90
14521;DHT22;7347;50.844;4.490;2023-08-24T20:30:58;21.30;99.90
14521;DHT22;7347;50.844;4.490;2023-08-24T20:33:25;21.30;99.90
14521;DHT22;7347;50.844;4.490;2023-08-24T20:35:52;21.30;99.90
14521;DHT22;7347;50.844;4.490;2023-08-24T20:38:19;21.40;99.90
14521;DHT22;7347;50.844;4.490;2023-08-24T20:40:47;21.50;99.90
14521;DHT22;7347;50.844;4.490;2023-08-24T20:43:14;21.60;99.90
14521;DHT22;7347;50.844;4.490;2023-08-24T20:45:41;21.60;99.90
14521;DHT22;7347;50.844;4.490;2023-08-24T20:48:09;21.60;99.90
14521;DHT22;7347;50.844;4.490;2023-08-24T20:50:36;21.60;99.90
14521;DHT22;7347;50.844;4.490;2023-08-24T20:53:03;21.30;99.90
14521;DHT22;7347;50.844;4.490;2023-08-24T20:55:32;21.10;99.90
14521;DHT22;7347;50.844;4.490;2023-08-24T20:57:59;21.20;99.90
14521;DHT22;7347;50.844;4.490;2023-08-24T21:00:26;21.30;99.90
14521;DHT22;7347;50.844;4.490;2023-08-24T21:02:53;21.30;99.90
14521;DHT22;7347;50.844;4.490;2023-08-24T21:05:22;21.20;99.90
